createdAt,value
2022-11-05T00:02:25.503Z,99.40
2022-11-05T00:05:47.345Z,99.87
2022-11-05T00:09:07.624Z,99.93
2022-11-05T00:12:42.239Z,100.00
2022-11-05T00:16:03.348Z,99.92
2022-11-05T00:19:10.002Z,100.00
2022-11-05T00:22:31.683Z,100.00
2022-11-05T00:25:34.439Z,100.00
2022-11-05T00:28:37.172Z,100.00
2022-11-05T00:31:39.856Z,100.00
2022-11-05T00:34:42.520Z,100.00
2022-11-05T00:37:50.366Z,100.00
2022-11-05T00:40:53.465Z,99.32
2022-11-05T00:44:13.526Z,99.60
2022-11-05T00:47:33.687Z,98.15
2022-11-05T00:50:36.373Z,98.23
2022-11-05T00:53:40.509Z,98.34
2022-11-05T00:56:43.187Z,98.27
2022-11-05T00:59:45.906Z,97.65
2022-11-05T01:02:48.648Z,98.01
2022-11-05T01:05:52.733Z,97.59
2022-11-05T01:08:57.046Z,97.59
2022-11-05T01:11:59.672Z,97.85
2022-11-05T01:15:02.516Z,97.77
2022-11-05T01:18:05.452Z,97.30
2022-11-05T01:21:12.221Z,97.72
2022-11-05T01:24:16.197Z,96.73
2022-11-05T01:27:18.944Z,96.63
2022-11-05T01:30:22.233Z,96.69
2022-11-05T01:33:25.094Z,97.43
2022-11-05T01:36:27.765Z,98.09
2022-11-05T01:39:31.833Z,97.23
2022-11-05T01:42:34.909Z,97.62
2022-11-05T01:45:37.977Z,97.98
2022-11-05T01:48:41.019Z,98.04
2022-11-05T01:51:45.934Z,97.92
2022-11-05T01:54:50.042Z,97.93
2022-11-05T01:57:55.433Z,98.11
2022-11-05T02:00:58.371Z,97.88
2022-11-05T02:04:05.188Z,98.24
2022-11-05T02:07:10.364Z,98.06
2022-11-05T02:10:17.944Z,97.99
2022-11-05T02:13:20.586Z,98.67
2022-11-05T02:16:38.203Z,98.69
2022-11-05T02:20:07.982Z,97.59
2022-11-05T02:23:53.266Z,97.80
2022-11-05T02:27:15.002Z,97.41
2022-11-05T02:30:43.347Z,97.62
2022-11-05T02:33:57.541Z,97.89
2022-11-05T02:37:12.641Z,97.35
2022-11-05T02:40:27.331Z,98.19
2022-11-05T02:43:49.338Z,97.94
2022-11-05T02:47:02.615Z,98.79
2022-11-05T02:50:22.624Z,98.91
2022-11-05T02:53:41.625Z,98.97
2022-11-05T02:56:52.751Z,99.29
2022-11-05T03:00:06.704Z,99.08
2022-11-05T03:03:24.087Z,99.90
2022-11-05T03:06:54.172Z,100.00
2022-11-05T03:10:08.644Z,100.00
2022-11-05T03:13:21.795Z,100.00
2022-11-05T03:16:39.337Z,100.00
2022-11-05T03:19:52.763Z,100.00
2022-11-05T03:23:14.027Z,100.00
2022-11-05T03:26:25.265Z,100.00
2022-11-05T03:29:34.772Z,99.84
2022-11-05T03:32:44.889Z,100.00
2022-11-05T03:36:01.457Z,100.00
2022-11-05T03:39:15.361Z,100.00
2022-11-05T03:42:24.258Z,100.00
2022-11-05T03:45:33.949Z,100.00
2022-11-05T03:48:46.329Z,100.00
2022-11-05T03:52:02.502Z,99.27
2022-11-05T03:55:09.897Z,98.93
2022-11-05T03:58:16.771Z,98.74
2022-11-05T04:01:23.238Z,99.50
2022-11-05T04:04:31.027Z,98.70
2022-11-05T04:07:58.657Z,99.14
2022-11-05T04:11:21.372Z,99.12
2022-11-05T04:14:28.195Z,100.00
2022-11-05T04:17:34.828Z,100.00
2022-11-05T04:20:59.889Z,100.00
2022-11-05T04:24:13.789Z,100.00
2022-11-05T04:27:19.950Z,100.00
2022-11-05T04:30:25.916Z,100.00
2022-11-05T04:33:32.842Z,100.00
2022-11-05T04:36:43.885Z,100.00
2022-11-05T04:39:51.977Z,100.00
2022-11-05T04:42:59.383Z,100.00
2022-11-05T04:46:05.612Z,100.00
2022-11-05T04:49:13.134Z,100.00
2022-11-05T04:52:19.885Z,100.00
2022-11-05T04:55:31.991Z,100.00
2022-11-05T04:58:41.804Z,100.00
2022-11-05T05:02:05.975Z,100.00
2022-11-05T05:05:12.939Z,100.00
2022-11-05T05:08:20.662Z,100.00
2022-11-05T05:11:31.920Z,100.00
2022-11-05T05:14:38.037Z,100.00
2022-11-05T05:17:47.628Z,100.00
2022-11-05T05:21:11.307Z,100.00
2022-11-05T05:24:26.482Z,100.00
2022-11-05T05:27:35.950Z,100.00
2022-11-05T05:30:42.881Z,100.00
2022-11-05T05:33:49.153Z,99.69
2022-11-05T05:36:58.823Z,99.86
2022-11-05T05:40:05.119Z,99.70
2022-11-05T05:43:15.452Z,99.89
2022-11-05T05:46:21.920Z,100.00
2022-11-05T05:49:28.050Z,99.42
2022-11-05T05:52:38.666Z,100.00
2022-11-05T05:55:41.951Z,99.95
2022-11-05T05:58:46.182Z,100.00
2022-11-05T06:01:49.174Z,99.66
2022-11-05T06:04:51.961Z,99.53
2022-11-05T06:07:58.356Z,99.89
2022-11-05T06:11:02.511Z,99.60
2022-11-05T06:14:06.652Z,99.89
2022-11-05T06:17:09.388Z,99.35
2022-11-05T06:20:12.835Z,99.56
2022-11-05T06:23:15.590Z,99.89
2022-11-05T06:26:19.923Z,99.07
2022-11-05T06:29:23.991Z,98.98
2022-11-05T06:32:26.709Z,98.23
2022-11-05T06:35:29.404Z,98.52
2022-11-05T06:38:33.959Z,98.71
2022-11-05T06:41:56.957Z,99.26
2022-11-05T06:45:01.254Z,98.95
2022-11-05T06:48:04.222Z,98.96
2022-11-05T06:51:08.135Z,98.78
2022-11-05T06:54:10.956Z,98.38
2022-11-05T06:57:13.971Z,99.09
2022-11-05T07:00:18.985Z,100.00
2022-11-05T07:03:21.845Z,99.67
2022-11-05T07:06:24.598Z,100.00
2022-11-05T07:09:27.342Z,99.97
2022-11-05T07:12:30.425Z,99.75
2022-11-05T07:15:34.923Z,99.82
2022-11-05T07:18:37.816Z,99.24
2022-11-05T07:21:43.490Z,99.46
2022-11-05T07:24:47.265Z,99.08
2022-11-05T07:27:50.039Z,98.62
2022-11-05T07:30:54.121Z,99.26
2022-11-05T07:33:56.926Z,98.46
2022-11-05T07:36:59.831Z,98.71
2022-11-05T07:40:02.598Z,97.79
2022-11-05T07:43:05.370Z,97.79
2022-11-05T07:46:13.620Z,97.30
2022-11-05T07:49:16.813Z,98.65
2022-11-05T07:52:19.509Z,98.63
2022-11-05T07:55:22.226Z,98.87
2022-11-05T07:58:25.003Z,98.32
2022-11-05T08:01:32.258Z,97.79
2022-11-05T08:04:35.133Z,97.21
2022-11-05T08:07:37.826Z,97.50
2022-11-05T08:10:41.195Z,97.52
2022-11-05T08:13:44.032Z,94.77
2022-11-05T08:16:48.072Z,94.31
2022-11-05T08:19:50.857Z,95.51
2022-11-05T08:22:54.528Z,95.62
2022-11-05T08:25:58.099Z,94.29
2022-11-05T08:29:00.860Z,94.40
2022-11-05T08:32:05.094Z,95.20
2022-11-05T08:35:08.632Z,95.47
2022-11-05T08:38:14.670Z,94.86
2022-11-05T08:41:17.839Z,95.66
2022-11-05T08:44:20.667Z,96.20
2022-11-05T08:47:25.198Z,96.49
2022-11-05T08:50:28.280Z,96.45
2022-11-05T08:53:31.145Z,96.28
2022-11-05T08:56:33.957Z,97.39
2022-11-05T08:59:36.659Z,97.38
2022-11-05T09:02:40.924Z,97.85
2022-11-05T09:05:44.538Z,97.31
2022-11-05T09:08:47.448Z,95.89
2022-11-05T09:12:11.252Z,95.99
2022-11-05T09:15:12.844Z,96.23
2022-11-05T09:18:18.089Z,96.51
2022-11-05T09:21:21.505Z,96.12
2022-11-05T09:24:24.468Z,96.06
2022-11-05T09:27:27.490Z,96.29
2022-11-05T09:30:30.195Z,96.23
2022-11-05T09:33:35.818Z,96.27
2022-11-05T09:36:38.541Z,96.29
2022-11-05T09:39:41.305Z,95.57
2022-11-05T09:42:47.070Z,95.46
2022-11-05T09:45:54.324Z,95.95
2022-11-05T09:49:04.173Z,96.13
2022-11-05T09:52:11.382Z,95.39
2022-11-05T09:55:24.636Z,96.18
2022-11-05T09:58:37.250Z,95.48
2022-11-05T10:01:40.699Z,94.57
2022-11-05T10:04:47.672Z,94.38
2022-11-05T10:07:54.598Z,95.34
2022-11-05T10:11:03.542Z,95.87
2022-11-05T10:14:13.621Z,94.84
2022-11-05T10:17:22.353Z,94.60
2022-11-05T10:20:33.103Z,92.78
2022-11-05T10:23:35.816Z,93.82
2022-11-05T10:26:39.257Z,94.99
2022-11-05T10:29:44.021Z,93.43
2022-11-05T10:32:47.848Z,92.73
2022-11-05T10:35:57.026Z,93.76
2022-11-05T10:39:03.153Z,93.00
2022-11-05T10:42:35.320Z,91.99
2022-11-05T10:45:51.505Z,93.37
2022-11-05T10:49:07.596Z,93.97
2022-11-05T10:52:21.634Z,90.78
2022-11-05T10:55:40.082Z,91.24
2022-11-05T10:59:00.979Z,90.72
2022-11-05T11:02:17.500Z,91.60
2022-11-05T11:05:23.134Z,92.61
2022-11-05T11:08:28.141Z,90.44
2022-11-05T11:11:34.306Z,91.49
2022-11-05T11:14:36.998Z,92.31
2022-11-05T11:17:55.328Z,91.50
2022-11-05T11:21:17.108Z,90.71
2022-11-05T11:24:23.745Z,90.60
2022-11-05T11:27:30.138Z,90.07
2022-11-05T11:30:33.760Z,90.28
2022-11-05T11:33:38.850Z,90.61
2022-11-05T11:36:46.690Z,88.85
2022-11-05T11:39:54.005Z,87.68
2022-11-05T11:43:00.600Z,88.50
2022-11-05T11:46:09.872Z,87.99
2022-11-05T11:49:31.693Z,88.48
2022-11-05T11:52:36.784Z,88.04
2022-11-05T11:55:41.097Z,86.88
2022-11-05T11:58:46.735Z,87.52
2022-11-05T12:02:07.809Z,86.35
2022-11-05T12:05:24.120Z,86.24
2022-11-05T12:08:45.658Z,86.44
2022-11-05T12:11:59.763Z,86.60
2022-11-05T12:15:15.954Z,86.01
2022-11-05T12:18:26.644Z,86.20
2022-11-05T12:21:52.432Z,84.76
2022-11-05T12:25:17.799Z,82.11
2022-11-05T12:29:18.024Z,82.92
2022-11-05T12:33:02.866Z,82.49
2022-11-05T12:36:14.743Z,82.58
2022-11-05T12:39:29.578Z,74.67
2022-11-05T12:42:47.779Z,64.33
2022-11-05T12:46:00.307Z,63.61
2022-11-05T12:49:20.162Z,66.07
2022-11-05T12:52:40.829Z,62.13
2022-11-05T12:55:48.831Z,59.21
2022-11-05T12:58:59.643Z,59.32
2022-11-05T13:02:15.236Z,58.27
2022-11-05T13:05:20.995Z,60.72
2022-11-05T13:08:29.508Z,65.17
2022-11-05T13:11:37.405Z,65.25
2022-11-05T13:14:46.258Z,68.28
2022-11-05T13:17:55.133Z,69.18
2022-11-05T13:20:59.633Z,71.90
2022-11-05T13:24:07.001Z,71.41
2022-11-05T13:27:42.094Z,70.26
2022-11-05T13:30:51.621Z,72.48
2022-11-05T13:33:57.268Z,72.46
2022-11-05T13:37:21.589Z,73.99
2022-11-05T13:40:38.357Z,74.00
2022-11-05T13:43:58.700Z,76.22
2022-11-05T13:47:17.981Z,75.49
2022-11-05T13:50:44.566Z,77.38
2022-11-05T13:54:02.593Z,77.31
2022-11-05T13:57:22.174Z,77.29
2022-11-05T14:00:27.011Z,79.20
2022-11-05T14:03:30.309Z,79.36
2022-11-05T14:06:37.504Z,80.45
2022-11-05T14:09:41.798Z,81.22
2022-11-05T14:12:50.474Z,82.05
2022-11-05T14:16:03.207Z,82.57
2022-11-05T14:19:29.249Z,82.90
2022-11-05T14:22:41.357Z,80.74
2022-11-05T14:26:14.069Z,80.55
2022-11-05T14:29:25.165Z,81.69
2022-11-05T14:32:44.017Z,82.68
2022-11-05T14:35:46.793Z,81.99
2022-11-05T14:38:52.982Z,81.31
2022-11-05T14:41:59.022Z,82.07
2022-11-05T14:45:22.416Z,82.68
2022-11-05T14:48:37.779Z,82.31
2022-11-05T14:51:45.789Z,83.45
2022-11-05T14:54:53.291Z,83.57
2022-11-05T14:58:06.545Z,83.63
2022-11-05T15:01:10.815Z,83.36
2022-11-05T15:04:19.181Z,84.14
2022-11-05T15:07:36.640Z,84.34
2022-11-05T15:10:41.714Z,84.83
2022-11-05T15:13:52.574Z,83.98
2022-11-05T15:16:58.314Z,83.85
2022-11-05T15:20:09.361Z,83.49
2022-11-05T15:23:15.677Z,83.95
2022-11-05T15:26:28.081Z,83.17
2022-11-05T15:29:33.015Z,83.39
2022-11-05T15:32:38.436Z,83.50
2022-11-05T15:35:42.621Z,83.22
2022-11-05T15:38:56.875Z,83.60
2022-11-05T15:42:14.975Z,84.43
2022-11-05T15:45:21.467Z,83.49
2022-11-05T15:48:24.225Z,84.86
2022-11-05T15:51:28.077Z,84.46
2022-11-05T15:54:31.539Z,83.97
2022-11-05T15:57:40.263Z,83.71
2022-11-05T16:00:48.666Z,83.86
2022-11-05T16:03:53.641Z,83.73
2022-11-05T16:06:59.809Z,84.72
2022-11-05T16:10:06.072Z,84.72
2022-11-05T16:13:33.033Z,83.82
2022-11-05T16:16:35.771Z,83.54
2022-11-05T16:19:42.465Z,83.82
2022-11-05T16:22:46.353Z,83.68
2022-11-05T16:25:49.290Z,84.45
2022-11-05T16:28:54.098Z,85.26
2022-11-05T16:31:58.653Z,84.93
2022-11-05T16:35:04.350Z,85.80
2022-11-05T16:38:07.096Z,86.67
2022-11-05T16:41:14.993Z,87.05
2022-11-05T16:44:19.130Z,87.44
2022-11-05T16:47:23.007Z,87.48
2022-11-05T16:50:27.891Z,87.61
2022-11-05T16:53:30.717Z,88.25
2022-11-05T16:56:34.325Z,88.51
2022-11-05T16:59:38.429Z,88.74
2022-11-05T17:02:41.388Z,88.49
2022-11-05T17:05:44.436Z,87.98
2022-11-05T17:08:48.213Z,87.37
2022-11-05T17:11:50.925Z,86.98
2022-11-05T17:14:55.065Z,87.42
2022-11-05T17:17:58.859Z,87.83
2022-11-05T17:21:01.545Z,87.75
2022-11-05T17:24:04.479Z,88.01
2022-11-05T17:27:07.185Z,87.69
2022-11-05T17:30:13.505Z,88.00
2022-11-05T17:33:17.202Z,88.02
2022-11-05T17:36:20.225Z,88.21
2022-11-05T17:39:28.735Z,88.46
2022-11-05T17:42:34.522Z,89.30
2022-11-05T17:45:47.811Z,89.29
2022-11-05T17:48:50.650Z,89.56
2022-11-05T17:51:53.336Z,89.81
2022-11-05T17:54:56.621Z,89.42
2022-11-05T17:57:59.327Z,89.59
2022-11-05T18:01:03.735Z,89.21
2022-11-05T18:04:09.067Z,88.63
2022-11-05T18:07:12.268Z,88.84
2022-11-05T18:10:15.875Z,88.83
2022-11-05T18:13:18.738Z,88.24
2022-11-05T18:16:22.783Z,88.53
2022-11-05T18:19:25.473Z,89.13
2022-11-05T18:22:28.223Z,89.37
2022-11-05T18:25:30.945Z,88.97
2022-11-05T18:28:33.944Z,89.44
2022-11-05T18:31:38.582Z,89.36
2022-11-05T18:34:41.503Z,89.13
2022-11-05T18:37:44.194Z,89.35
2022-11-05T18:40:46.920Z,89.52
2022-11-05T18:43:49.774Z,89.57
2022-11-05T18:46:58.514Z,89.85
2022-11-05T18:50:01.821Z,89.64
2022-11-05T18:53:04.550Z,89.67
2022-11-05T18:56:11.121Z,89.96
2022-11-05T18:59:36.033Z,89.71
2022-11-05T19:02:38.977Z,90.29
2022-11-05T19:05:41.763Z,89.15
2022-11-05T19:08:44.988Z,88.81
2022-11-05T19:11:47.685Z,89.12
2022-11-05T19:14:50.387Z,89.43
2022-11-05T19:17:54.442Z,90.59
2022-11-05T19:20:57.169Z,90.03
2022-11-05T19:24:02.458Z,90.40
2022-11-05T19:27:05.389Z,90.86
2022-11-05T19:30:08.950Z,90.97
2022-11-05T19:33:13.041Z,90.72
2022-11-05T19:36:17.733Z,90.18
2022-11-05T19:39:20.495Z,90.51
2022-11-05T19:42:23.324Z,90.15
2022-11-05T19:48:51.091Z,90.23
2022-11-05T19:51:53.884Z,89.93
2022-11-05T19:54:56.678Z,90.04
2022-11-05T19:57:59.423Z,90.41
2022-11-05T20:01:02.256Z,91.02
2022-11-05T20:04:06.956Z,91.37
2022-11-05T20:07:09.730Z,90.66
2022-11-05T20:10:12.768Z,89.68
2022-11-05T20:13:19.840Z,90.70
2022-11-05T20:16:25.345Z,90.57
2022-11-05T20:19:29.466Z,90.98
2022-11-05T20:22:32.355Z,90.55
2022-11-05T20:25:35.337Z,91.18
2022-11-05T20:28:39.049Z,90.74
2022-11-05T20:31:41.832Z,91.52
2022-11-05T20:34:45.823Z,91.99
2022-11-05T20:37:53.711Z,91.63
2022-11-05T20:40:56.924Z,91.12
2022-11-05T20:44:00.008Z,92.35
2022-11-05T20:47:02.667Z,92.26
2022-11-05T20:50:08.659Z,92.21
2022-11-05T20:53:13.012Z,91.95
2022-11-05T20:56:20.051Z,91.52
2022-11-05T20:59:23.925Z,91.68
2022-11-05T21:02:26.739Z,91.82
2022-11-05T21:05:35.377Z,92.42
2022-11-05T21:08:38.752Z,92.23
2022-11-05T21:11:58.854Z,92.21
2022-11-05T21:15:01.480Z,92.58
2022-11-05T21:18:04.955Z,92.15
2022-11-05T21:21:12.246Z,92.43
2022-11-05T21:24:14.966Z,91.80
2022-11-05T21:27:17.601Z,91.09
2022-11-05T21:30:20.388Z,90.54
2022-11-05T21:33:23.052Z,91.00
2022-11-05T21:36:27.326Z,90.92
2022-11-05T21:39:29.956Z,90.61
2022-11-05T21:42:32.622Z,91.47
2022-11-05T21:45:35.351Z,90.24
2022-11-05T21:48:37.967Z,89.66
2022-11-05T21:51:59.449Z,90.14
2022-11-05T21:55:19.959Z,90.00
2022-11-05T21:58:39.971Z,89.76
2022-11-05T22:01:42.741Z,89.73
2022-11-05T22:04:47.462Z,89.92
2022-11-05T22:07:51.556Z,89.88
2022-11-05T22:10:54.261Z,90.25
2022-11-05T22:13:56.907Z,90.63
2022-11-05T22:16:59.592Z,90.11
2022-11-05T22:20:02.291Z,90.62
2022-11-05T22:23:10.865Z,90.51
2022-11-05T22:26:13.915Z,89.83
2022-11-05T22:29:16.680Z,89.80
2022-11-05T22:32:19.856Z,90.54
2022-11-05T22:35:22.503Z,90.03
2022-11-05T22:38:26.576Z,90.84
2022-11-05T22:41:29.470Z,90.77
2022-11-05T22:44:32.140Z,90.07
2022-11-05T22:47:34.794Z,89.21
2022-11-05T22:50:37.415Z,89.57
2022-11-05T22:53:42.244Z,89.89
2022-11-05T22:56:45.064Z,90.27
2022-11-05T22:59:48.342Z,89.95
2022-11-05T23:02:52.405Z,90.69
2022-11-05T23:05:58.555Z,90.74
2022-11-05T23:09:22.685Z,90.51
2022-11-05T23:12:27.999Z,90.30
2022-11-05T23:15:48.405Z,91.44
2022-11-05T23:19:08.487Z,91.96
2022-11-05T23:22:31.030Z,92.55
2022-11-05T23:25:35.343Z,91.69
2022-11-05T23:28:37.973Z,91.99
2022-11-05T23:31:58.261Z,90.87
2022-11-05T23:35:01.233Z,91.94
2022-11-05T23:38:21.250Z,91.58
2022-11-05T23:41:42.439Z,91.60
2022-11-05T23:45:02.443Z,91.25
2022-11-05T23:48:18.139Z,91.06
2022-11-05T23:51:21.031Z,91.16
2022-11-05T23:54:23.691Z,90.18
2022-11-05T23:57:27.796Z,90.22
